createdAt,value
2023-10-30T00:00:09.594Z,1.67
2023-10-30T00:02:37.647Z,2.28
2023-10-30T00:05:05.502Z,1.62
2023-10-30T00:07:32.933Z,1.90
2023-10-30T00:10:00.678Z,1.30
2023-10-30T00:12:28.122Z,1.40
2023-10-30T00:14:55.625Z,1.50
2023-10-30T00:17:23.306Z,1.50
2023-10-30T00:19:51.300Z,1.60
2023-10-30T00:22:18.758Z,1.17
2023-10-30T00:24:46.632Z,1.42
2023-10-30T00:27:14.430Z,1.62
2023-10-30T00:29:42.057Z,1.98
2023-10-30T00:32:09.827Z,1.80
2023-10-30T00:34:37.242Z,1.45
2023-10-30T00:37:04.830Z,1.30
2023-10-30T00:39:33.709Z,1.70
2023-10-30T00:42:01.484Z,1.17
2023-10-30T00:44:29.063Z,1.15
2023-10-30T00:46:56.846Z,1.55
2023-10-30T00:49:24.295Z,1.55
2023-10-30T00:51:51.723Z,1.87
2023-10-30T00:54:19.517Z,1.15
2023-10-30T00:56:47.000Z,1.30
2023-10-30T00:59:14.450Z,1.75
2023-10-30T01:01:42.252Z,1.65
2023-10-30T01:04:10.082Z,1.48
2023-10-30T01:06:37.731Z,1.42
2023-10-30T01:09:05.492Z,1.52
2023-10-30T01:11:33.005Z,1.40
2023-10-30T01:14:00.442Z,1.50
2023-10-30T01:16:28.220Z,1.40
2023-10-30T01:18:55.707Z,1.17
2023-10-30T01:21:23.179Z,1.62
2023-10-30T01:23:50.880Z,1.50
2023-10-30T01:26:18.472Z,1.50
2023-10-30T01:28:45.936Z,1.58
2023-10-30T01:31:13.778Z,1.62
2023-10-30T01:33:41.290Z,1.40
2023-10-30T01:36:09.175Z,1.77
2023-10-30T01:38:37.055Z,1.25
2023-10-30T01:41:06.382Z,1.48
2023-10-30T01:43:34.073Z,1.40
2023-10-30T01:46:01.852Z,0.98
2023-10-30T01:48:33.587Z,1.33
2023-10-30T01:51:01.716Z,1.30
2023-10-30T01:53:30.618Z,1.30
2023-10-30T01:55:58.057Z,1.20
2023-10-30T01:58:26.202Z,1.40
2023-10-30T02:00:55.008Z,1.50
2023-10-30T02:03:22.846Z,1.20
2023-10-30T02:05:51.862Z,1.15
2023-10-30T02:08:19.309Z,1.60
2023-10-30T02:10:48.716Z,1.30
2023-10-30T02:13:16.535Z,1.33
2023-10-30T02:15:44.066Z,1.30
2023-10-30T02:18:12.563Z,1.33
2023-10-30T02:20:40.596Z,1.12
2023-10-30T02:23:08.044Z,1.30
2023-10-30T02:25:35.709Z,1.20
2023-10-30T02:28:03.909Z,1.40
2023-10-30T02:30:31.482Z,1.27
2023-10-30T02:32:59.082Z,1.30
2023-10-30T02:35:28.099Z,1.30
2023-10-30T02:37:55.603Z,1.60
2023-10-30T02:40:23.303Z,1.37
2023-10-30T02:42:51.042Z,1.30
2023-10-30T02:45:18.582Z,1.00
2023-10-30T02:47:46.127Z,1.55
2023-10-30T02:50:13.940Z,1.20
2023-10-30T02:52:41.413Z,1.00
2023-10-30T02:55:10.347Z,1.33
2023-10-30T02:57:38.176Z,1.60
2023-10-30T03:00:07.894Z,1.20
2023-10-30T03:02:37.616Z,1.50
2023-10-30T03:05:06.254Z,1.40
2023-10-30T03:07:33.868Z,1.27
2023-10-30T03:10:01.399Z,1.20
2023-10-30T03:12:29.234Z,1.70
2023-10-30T03:14:56.724Z,1.50
2023-10-30T03:17:24.179Z,1.12
2023-10-30T03:19:52.055Z,1.25
2023-10-30T03:22:20.070Z,1.48
2023-10-30T03:24:47.751Z,1.83
2023-10-30T03:27:15.554Z,1.10
2023-10-30T03:29:43.017Z,1.40
2023-10-30T03:32:10.459Z,1.50
2023-10-30T03:34:38.589Z,1.48
2023-10-30T03:37:06.049Z,1.33
2023-10-30T03:39:33.847Z,1.20
2023-10-30T03:42:01.713Z,1.35
2023-10-30T03:44:30.457Z,1.40
2023-10-30T03:46:58.008Z,0.95
2023-10-30T03:49:25.856Z,1.52
2023-10-30T03:51:53.357Z,1.10
2023-10-30T03:54:20.826Z,1.23
2023-10-30T03:56:48.854Z,1.20
2023-10-30T03:59:19.410Z,1.27
2023-10-30T04:01:46.907Z,1.05
2023-10-30T04:04:14.820Z,1.15
2023-10-30T04:06:42.388Z,1.40
2023-10-30T04:09:09.956Z,1.42
2023-10-30T04:11:37.778Z,1.27
2023-10-30T04:14:05.221Z,1.40
2023-10-30T04:16:32.903Z,1.48
2023-10-30T04:19:00.680Z,1.30
2023-10-30T04:21:28.236Z,0.88
2023-10-30T04:23:55.996Z,1.20
2023-10-30T04:26:23.863Z,1.20
2023-10-30T04:28:51.306Z,1.02
2023-10-30T04:31:18.825Z,1.05
2023-10-30T04:33:46.605Z,1.60
2023-10-30T04:36:14.502Z,1.40
2023-10-30T04:38:41.992Z,1.02
2023-10-30T04:41:09.680Z,1.40
2023-10-30T04:43:38.609Z,1.42
2023-10-30T04:46:06.146Z,1.25
2023-10-30T04:48:34.431Z,1.02
2023-10-30T04:51:01.997Z,1.08
2023-10-30T04:53:30.901Z,1.33
2023-10-30T04:55:58.838Z,1.20
2023-10-30T04:58:26.354Z,1.25
2023-10-30T05:00:53.830Z,1.50
2023-10-30T05:03:21.665Z,1.10
2023-10-30T05:05:49.224Z,1.25
2023-10-30T05:08:18.807Z,1.10
2023-10-30T05:10:46.590Z,1.33
2023-10-30T05:13:14.048Z,0.98
2023-10-30T05:15:41.585Z,1.08
2023-10-30T05:18:09.441Z,1.70
2023-10-30T05:20:36.947Z,0.75
2023-10-30T05:23:04.397Z,1.17
2023-10-30T05:25:42.500Z,1.10
2023-10-30T05:28:10.967Z,1.23
2023-10-30T05:30:39.082Z,1.20
2023-10-30T05:33:06.752Z,1.35
2023-10-30T05:35:34.236Z,1.40
2023-10-30T05:38:02.005Z,1.10
2023-10-30T05:40:29.543Z,1.30
2023-10-30T05:42:56.976Z,1.40
2023-10-30T05:45:24.765Z,1.35
2023-10-30T05:47:52.366Z,1.00
2023-10-30T05:50:19.875Z,1.12
2023-10-30T05:52:47.621Z,1.58
2023-10-30T05:55:15.075Z,1.12
2023-10-30T05:57:46.272Z,1.15
2023-10-30T06:00:15.142Z,1.00
2023-10-30T06:02:43.213Z,1.37
2023-10-30T06:05:16.878Z,1.30
2023-10-30T06:07:44.776Z,1.40
2023-10-30T06:10:12.338Z,1.23
2023-10-30T06:12:40.248Z,1.48
2023-10-30T06:15:08.620Z,1.40
2023-10-30T06:17:36.463Z,1.50
2023-10-30T06:20:04.926Z,1.10
2023-10-30T06:22:33.263Z,1.20
2023-10-30T06:25:01.799Z,1.50
2023-10-30T06:27:29.527Z,1.45
2023-10-30T06:29:57.298Z,1.20
2023-10-30T06:32:24.795Z,1.50
2023-10-30T06:34:52.302Z,1.30
2023-10-30T06:37:21.113Z,1.33
2023-10-30T06:39:48.723Z,1.50
2023-10-30T06:42:16.301Z,1.58
2023-10-30T06:44:44.186Z,1.48
2023-10-30T06:47:11.671Z,1.80
2023-10-30T06:49:41.493Z,1.37
2023-10-30T06:52:09.337Z,1.23
2023-10-30T06:54:37.015Z,1.30
2023-10-30T06:57:04.505Z,1.37
2023-10-30T06:59:32.320Z,1.48
2023-10-30T07:02:00.517Z,1.42
2023-10-30T07:04:28.044Z,2.22
2023-10-30T07:06:56.045Z,1.40
2023-10-30T07:09:23.511Z,1.42
2023-10-30T07:11:50.969Z,1.50
2023-10-30T07:14:18.940Z,1.48
2023-10-30T07:17:00.682Z,1.40
2023-10-30T07:19:32.361Z,1.60
2023-10-30T07:21:59.905Z,1.92
2023-10-30T07:24:27.412Z,1.40
2023-10-30T07:26:56.164Z,1.12
2023-10-30T07:29:23.613Z,1.40
2023-10-30T07:31:51.056Z,1.40
2023-10-30T07:34:18.764Z,1.55
2023-10-30T07:36:46.216Z,1.08
2023-10-30T07:39:13.673Z,1.12
2023-10-30T07:41:41.434Z,2.08
2023-10-30T07:44:10.568Z,1.35
2023-10-30T07:46:38.079Z,1.52
2023-10-30T07:49:07.451Z,1.95
2023-10-30T07:51:35.185Z,1.77
2023-10-30T07:54:02.634Z,1.50
2023-10-30T07:56:30.354Z,1.65
2023-10-30T07:58:57.900Z,1.48
2023-10-30T08:01:25.825Z,1.30
2023-10-30T08:03:53.721Z,1.37
2023-10-30T08:06:21.261Z,1.37
2023-10-30T08:08:49.300Z,1.45
2023-10-30T08:11:17.271Z,2.12
2023-10-30T08:13:44.806Z,1.58
2023-10-30T08:16:12.265Z,1.58
2023-10-30T08:18:40.080Z,1.77
2023-10-30T08:21:08.617Z,2.30
2023-10-30T08:23:38.161Z,1.75
2023-10-30T08:28:34.572Z,2.20
2023-10-30T08:31:02.116Z,3.45
2023-10-30T08:33:30.088Z,1.92
2023-10-30T08:35:57.865Z,2.60
2023-10-30T08:38:25.360Z,2.60
2023-10-30T08:40:53.085Z,2.30
2023-10-30T08:43:20.647Z,2.20
2023-10-30T08:45:48.162Z,2.03
2023-10-30T08:48:19.234Z,2.65
2023-10-30T08:50:47.541Z,2.30
2023-10-30T08:53:16.614Z,2.47
2023-10-30T08:55:44.351Z,2.60
2023-10-30T08:58:11.870Z,2.90
2023-10-30T09:00:39.425Z,2.20
2023-10-30T09:03:07.504Z,2.22
2023-10-30T09:05:35.811Z,2.80
2023-10-30T09:08:03.424Z,1.90
2023-10-30T09:10:33.710Z,3.03
2023-10-30T09:13:01.395Z,1.90
2023-10-30T09:15:29.138Z,2.30
2023-10-30T09:17:57.049Z,3.17
2023-10-30T09:20:24.581Z,2.37
2023-10-30T09:22:52.068Z,1.70
2023-10-30T09:25:19.959Z,2.17
2023-10-30T09:27:48.939Z,2.20
2023-10-30T09:30:16.893Z,2.20
2023-10-30T09:32:44.642Z,1.95
2023-10-30T09:35:12.092Z,2.17
2023-10-30T09:37:40.477Z,1.85
2023-10-30T09:40:08.718Z,2.75
2023-10-30T09:42:36.329Z,1.83
2023-10-30T09:45:05.329Z,1.75
2023-10-30T09:47:33.125Z,2.30
2023-10-30T09:50:00.606Z,1.95
2023-10-30T09:52:29.045Z,1.80
2023-10-30T09:54:59.159Z,1.80
2023-10-30T09:57:28.259Z,1.80
2023-10-30T09:59:57.721Z,1.80
2023-10-30T10:02:25.724Z,1.60
2023-10-30T10:04:53.519Z,1.50
2023-10-30T10:07:21.006Z,1.73
2023-10-30T10:10:04.240Z,2.08
2023-10-30T10:12:34.649Z,1.75
2023-10-30T10:15:08.081Z,1.92
2023-10-30T10:17:49.957Z,1.60
2023-10-30T10:20:18.426Z,1.67
2023-10-30T10:22:46.129Z,1.85
2023-10-30T10:25:16.850Z,1.70
2023-10-30T10:27:44.441Z,1.77
2023-10-30T10:30:12.350Z,1.37
2023-10-30T10:32:39.822Z,1.50
2023-10-30T10:35:07.613Z,1.60
2023-10-30T10:37:35.967Z,1.60
2023-10-30T10:40:06.840Z,1.48
2023-10-30T10:42:34.993Z,1.45
2023-10-30T10:45:03.277Z,1.40
2023-10-30T10:47:31.052Z,1.83
2023-10-30T10:49:58.974Z,1.48
2023-10-30T10:52:27.571Z,2.00
2023-10-30T10:55:06.462Z,2.00
2023-10-30T10:57:51.041Z,1.70
2023-10-30T11:00:18.647Z,1.55
2023-10-30T11:02:48.772Z,1.50
2023-10-30T11:05:16.892Z,1.50
2023-10-30T11:08:16.784Z,1.70
2023-10-30T11:13:40.601Z,1.50
2023-10-30T11:16:15.263Z,1.50
2023-10-30T11:18:42.856Z,1.35
2023-10-30T11:21:17.324Z,1.62
2023-10-30T11:23:48.705Z,1.58
2023-10-30T11:26:31.570Z,1.52
2023-10-30T11:28:59.118Z,1.73
2023-10-30T11:31:34.255Z,1.50
2023-10-30T11:34:13.005Z,1.27
2023-10-30T11:36:40.958Z,1.60
2023-10-30T11:39:12.297Z,1.30
2023-10-30T11:41:42.039Z,1.48
2023-10-30T11:44:13.427Z,1.65
2023-10-30T11:46:48.507Z,1.40
2023-10-30T11:49:16.431Z,1.55
2023-10-30T11:51:46.013Z,1.20
2023-10-30T11:54:14.030Z,1.58
2023-10-30T11:56:47.891Z,1.70
2023-10-30T11:59:16.370Z,1.85
2023-10-30T12:01:44.648Z,1.30
2023-10-30T12:04:12.537Z,1.95
2023-10-30T12:06:41.591Z,1.52
2023-10-30T12:09:09.057Z,1.42
2023-10-30T12:11:36.764Z,1.42
2023-10-30T12:14:06.111Z,1.42
2023-10-30T12:16:37.074Z,1.20
2023-10-30T12:19:05.201Z,1.52
2023-10-30T12:21:32.741Z,1.30
2023-10-30T12:24:00.621Z,1.33
2023-10-30T12:26:28.870Z,2.45
2023-10-30T12:29:02.241Z,1.45
2023-10-30T12:31:30.598Z,1.67
2023-10-30T12:34:15.689Z,1.77
2023-10-30T12:36:43.393Z,1.35
2023-10-30T12:39:18.292Z,1.58
2023-10-30T12:41:50.627Z,1.45
2023-10-30T12:44:18.692Z,1.33
2023-10-30T12:46:46.813Z,1.27
2023-10-30T12:49:15.083Z,1.40
2023-10-30T12:51:43.393Z,1.33
2023-10-30T12:54:11.788Z,1.40
2023-10-30T12:56:39.271Z,1.58
2023-10-30T12:59:07.444Z,1.37
2023-10-30T13:01:44.895Z,1.80
2023-10-30T13:04:26.855Z,1.65
2023-10-30T13:06:56.481Z,1.20
2023-10-30T13:09:25.302Z,1.33
2023-10-30T13:11:53.050Z,1.30
2023-10-30T13:14:22.312Z,1.33
2023-10-30T13:16:49.901Z,1.60
2023-10-30T13:19:17.413Z,1.12
2023-10-30T13:21:45.599Z,1.60
2023-10-30T13:24:13.398Z,1.42
2023-10-30T13:26:40.956Z,1.33
2023-10-30T13:29:08.689Z,1.25
2023-10-30T13:31:36.170Z,1.40
2023-10-30T13:34:04.428Z,1.25
2023-10-30T13:36:32.319Z,1.58
2023-10-30T13:38:59.815Z,1.27
2023-10-30T13:41:27.295Z,1.42
2023-10-30T13:43:55.155Z,1.30
2023-10-30T13:46:23.142Z,1.70
2023-10-30T13:48:50.658Z,1.37
2023-10-30T13:51:18.451Z,1.50
2023-10-30T13:53:45.974Z,1.73
2023-10-30T13:56:13.402Z,2.00
2023-10-30T13:58:41.156Z,1.62
2023-10-30T14:01:10.040Z,2.08
2023-10-30T14:03:37.876Z,2.05
2023-10-30T14:06:05.638Z,1.90
2023-10-30T14:08:33.421Z,1.70
2023-10-30T14:11:01.125Z,1.83
2023-10-30T14:13:28.635Z,1.73
2023-10-30T14:15:56.400Z,1.80
2023-10-30T14:18:24.231Z,1.98
2023-10-30T14:20:51.679Z,1.92
2023-10-30T14:23:19.652Z,1.45
2023-10-30T14:25:47.438Z,1.98
2023-10-30T14:28:15.081Z,1.42
2023-10-30T14:30:42.675Z,1.40
2023-10-30T14:33:12.429Z,2.17
2023-10-30T14:35:39.973Z,1.52
2023-10-30T14:38:07.469Z,1.60
2023-10-30T14:40:35.205Z,1.80
2023-10-30T14:43:02.711Z,1.98
2023-10-30T14:45:30.281Z,1.95
2023-10-30T14:47:58.017Z,1.75
2023-10-30T14:50:25.501Z,1.65
2023-10-30T14:52:52.980Z,1.77
2023-10-30T14:55:20.736Z,2.20
2023-10-30T14:57:48.341Z,1.30
2023-10-30T15:00:16.090Z,1.80
2023-10-30T15:02:45.559Z,2.72
2023-10-30T15:05:14.116Z,2.42
2023-10-30T15:07:41.698Z,1.60
2023-10-30T15:10:09.669Z,1.73
2023-10-30T15:12:37.223Z,1.83
2023-10-30T15:15:05.588Z,1.90
2023-10-30T15:17:36.499Z,1.52
2023-10-30T15:20:05.720Z,1.67
2023-10-30T15:22:33.551Z,2.20
2023-10-30T15:25:01.088Z,1.80
2023-10-30T15:27:30.226Z,1.48
2023-10-30T15:29:58.635Z,2.20
2023-10-30T15:32:26.125Z,2.40
2023-10-30T15:34:54.101Z,1.80
2023-10-30T15:37:21.883Z,1.42
2023-10-30T15:39:49.362Z,1.95
2023-10-30T15:42:16.867Z,1.60
2023-10-30T15:44:44.798Z,1.87
2023-10-30T15:47:24.275Z,2.12
2023-10-30T15:49:53.835Z,1.92
2023-10-30T15:57:26.233Z,2.00
2023-10-30T15:59:53.975Z,1.77
2023-10-30T16:02:21.449Z,2.20
2023-10-30T16:07:20.191Z,2.33
2023-10-30T16:09:49.360Z,1.83
2023-10-30T16:12:17.514Z,1.70
2023-10-30T16:14:44.985Z,1.90
2023-10-30T16:19:44.195Z,1.75
2023-10-30T16:22:12.646Z,2.30
2023-10-30T16:24:40.123Z,2.00
2023-10-30T16:27:07.919Z,2.20
2023-10-30T16:29:37.432Z,1.60
2023-10-30T16:32:05.443Z,2.45
2023-10-30T16:34:33.961Z,1.50
2023-10-30T16:37:03.128Z,1.80
2023-10-30T16:39:30.714Z,2.13
2023-10-30T16:41:58.519Z,1.90
2023-10-30T16:44:26.141Z,1.80
2023-10-30T16:46:53.768Z,2.62
2023-10-30T16:49:21.597Z,2.10
2023-10-30T16:51:49.131Z,2.12
2023-10-30T16:54:17.034Z,1.80
2023-10-30T16:56:44.710Z,2.12
2023-10-30T16:59:12.168Z,2.35
2023-10-30T17:01:39.697Z,2.28
2023-10-30T17:04:08.027Z,2.10
2023-10-30T17:06:35.578Z,2.80
2023-10-30T17:09:03.037Z,2.08
2023-10-30T17:11:31.819Z,2.42
2023-10-30T17:13:59.409Z,1.70
2023-10-30T17:16:27.026Z,1.70
2023-10-30T17:18:54.871Z,2.08
2023-10-30T17:21:22.398Z,1.90
2023-10-30T17:23:50.014Z,2.47
2023-10-30T17:26:17.944Z,2.40
2023-10-30T17:28:45.528Z,2.33
2023-10-30T17:31:13.060Z,2.20
2023-10-30T17:33:40.856Z,2.40
2023-10-30T17:36:08.899Z,2.37
2023-10-30T17:38:37.354Z,2.30
2023-10-30T17:41:05.442Z,2.60
2023-10-30T17:43:33.227Z,3.40
2023-10-30T17:46:00.919Z,2.65
2023-10-30T17:48:28.917Z,2.62
2023-10-30T17:50:57.060Z,2.50
2023-10-30T17:53:34.639Z,2.05
2023-10-30T17:56:02.756Z,2.33
2023-10-30T17:58:31.105Z,1.87
2023-10-30T18:00:59.547Z,2.50
2023-10-30T18:03:28.689Z,2.35
2023-10-30T18:05:57.102Z,2.08
2023-10-30T18:08:26.466Z,2.50
2023-10-30T18:10:55.230Z,2.80
2023-10-30T18:13:23.897Z,2.10
2023-10-30T18:15:53.645Z,2.15
2023-10-30T18:20:50.035Z,2.30
2023-10-30T18:23:18.450Z,2.47
2023-10-30T18:25:48.038Z,2.25
2023-10-30T18:28:18.122Z,2.33
2023-10-30T18:33:14.876Z,2.20
2023-10-30T18:35:45.930Z,2.30
2023-10-30T18:38:16.234Z,2.20
2023-10-30T18:40:45.637Z,2.12
2023-10-30T18:43:16.837Z,2.75
2023-10-30T18:45:50.090Z,1.87
2023-10-30T18:48:18.902Z,2.58
2023-10-30T18:50:49.778Z,2.03
2023-10-30T18:53:18.983Z,2.20
2023-10-30T18:55:47.546Z,2.70
2023-10-30T18:58:16.757Z,2.80
2023-10-30T19:00:45.612Z,2.35
2023-10-30T19:03:13.452Z,2.20
2023-10-30T19:05:41.655Z,2.55
2023-10-30T19:10:42.455Z,2.60
2023-10-30T19:13:11.872Z,2.20
2023-10-30T19:15:43.677Z,2.17
2023-10-30T19:18:14.227Z,2.20
2023-10-30T19:20:42.314Z,2.22
2023-10-30T19:23:10.937Z,2.85
2023-10-30T19:25:40.837Z,2.80
2023-10-30T19:28:09.679Z,2.40
2023-10-30T19:30:40.210Z,2.63
2023-10-30T19:33:10.546Z,2.28
2023-10-30T19:35:39.398Z,2.42
2023-10-30T19:38:11.440Z,2.17
2023-10-30T19:40:43.597Z,2.10
2023-10-30T19:43:11.559Z,2.70
2023-10-30T19:45:41.260Z,2.80
2023-10-30T19:48:12.753Z,2.28
2023-10-30T19:50:42.488Z,3.25
2023-10-30T19:53:11.606Z,2.35
2023-10-30T19:55:40.482Z,2.22
2023-10-30T19:58:09.056Z,2.40
2023-10-30T20:00:38.524Z,2.20
2023-10-30T20:03:07.790Z,2.62
2023-10-30T20:05:36.475Z,2.42
2023-10-30T20:08:04.445Z,2.60
2023-10-30T20:10:37.722Z,2.40
2023-10-30T20:13:08.072Z,2.62
2023-10-30T20:15:37.308Z,2.50
2023-10-30T20:18:05.734Z,2.40
2023-10-30T20:20:33.944Z,2.58
2023-10-30T20:23:03.228Z,3.00
2023-10-30T20:25:33.287Z,2.60
2023-10-30T20:28:02.040Z,2.37
2023-10-30T20:30:31.160Z,2.17
2023-10-30T20:32:59.277Z,2.67
2023-10-30T20:35:27.838Z,2.45
2023-10-30T20:37:56.136Z,2.62
2023-10-30T20:40:24.628Z,2.28
2023-10-30T20:42:52.848Z,2.50
2023-10-30T20:45:21.116Z,2.55
2023-10-30T20:47:53.133Z,2.42
2023-10-30T20:50:21.965Z,2.10
2023-10-30T20:52:51.195Z,2.33
2023-10-30T20:55:19.304Z,2.85
2023-10-30T20:57:47.739Z,2.60
2023-10-30T21:00:17.065Z,2.22
2023-10-30T21:02:47.781Z,2.33
2023-10-30T21:05:15.851Z,2.40
2023-10-30T21:07:43.662Z,2.22
2023-10-30T21:10:11.141Z,2.33
2023-10-30T21:12:38.848Z,2.97
2023-10-30T21:15:08.986Z,2.62
2023-10-30T21:17:36.673Z,3.15
2023-10-30T21:20:06.032Z,2.50
2023-10-30T21:22:34.779Z,2.43
2023-10-30T21:25:02.261Z,2.65
2023-10-30T21:27:30.400Z,2.37
2023-10-30T21:29:57.872Z,2.62
2023-10-30T21:32:27.476Z,3.12
2023-10-30T21:34:55.709Z,3.10
2023-10-30T21:37:23.611Z,3.45
2023-10-30T21:39:51.360Z,2.90
2023-10-30T21:42:19.082Z,2.78
2023-10-30T21:44:46.953Z,3.03
2023-10-30T21:47:14.734Z,3.00
2023-10-30T21:49:42.515Z,3.10
2023-10-30T21:52:09.959Z,3.65
2023-10-30T21:54:37.450Z,3.75
2023-10-30T21:57:05.200Z,3.10
2023-10-30T21:59:32.715Z,3.55
2023-10-30T22:02:00.280Z,3.12
2023-10-30T22:04:28.188Z,3.65
2023-10-30T22:06:55.712Z,3.72
2023-10-30T22:09:23.231Z,4.28
2023-10-30T22:11:51.295Z,3.58
2023-10-30T22:14:18.765Z,3.58
2023-10-30T22:16:46.337Z,3.97
2023-10-30T22:19:14.341Z,4.07
2023-10-30T22:21:42.394Z,3.75
2023-10-30T22:24:10.044Z,3.87
2023-10-30T22:26:37.832Z,3.78
2023-10-30T22:29:05.324Z,3.90
2023-10-30T22:31:33.011Z,4.35
2023-10-30T22:34:00.972Z,3.72
2023-10-30T22:36:28.421Z,3.75
2023-10-30T22:38:55.892Z,4.85
2023-10-30T22:41:23.923Z,4.50
2023-10-30T22:43:54.194Z,4.60
2023-10-30T22:46:22.174Z,5.05
2023-10-30T22:48:51.488Z,5.10
2023-10-30T22:51:18.942Z,4.82
2023-10-30T22:53:46.432Z,4.72
2023-10-30T22:56:14.180Z,4.10
2023-10-30T22:58:44.183Z,4.62
2023-10-30T23:01:11.973Z,3.83
2023-10-30T23:03:39.956Z,4.60
2023-10-30T23:06:31.176Z,4.47
2023-10-30T23:08:58.939Z,4.10
2023-10-30T23:11:26.482Z,4.00
2023-10-30T23:13:53.975Z,3.90
2023-10-30T23:16:21.874Z,4.70
2023-10-30T23:18:49.351Z,4.45
2023-10-30T23:21:16.874Z,4.28
2023-10-30T23:23:45.015Z,4.07
2023-10-30T23:26:12.532Z,3.90
2023-10-30T23:28:40.065Z,3.90
2023-10-30T23:31:07.991Z,4.03
2023-10-30T23:33:35.429Z,3.83
2023-10-30T23:36:03.176Z,3.85
2023-10-30T23:38:31.498Z,4.15
2023-10-30T23:40:59.020Z,3.45
2023-10-30T23:43:27.461Z,4.28
2023-10-30T23:45:55.157Z,4.37
2023-10-30T23:48:22.711Z,3.87
2023-10-30T23:50:50.182Z,3.78
2023-10-30T23:53:17.995Z,4.15
2023-10-30T23:55:46.152Z,3.83
2023-10-30T23:58:13.963Z,3.50
